Terminal Aerodrome Forecast
Issued by NWS Blacksburg, VA

Current Version | Previous Version | Graphics & Text | Print | Product List | Glossary Off
Versions: 1 2 3 4 5 6 7 8 9 10 11 12 13 14 15 16 17 18 19 20 21 22 23 24 25 26 27 28 29 30 31 32 33

000
FTUS41 KRNK 020834 AAA
TAFBLF
TAF AMD
KBLF 020834Z 0209/0306 16010G18KT P6SM BKN250
     FM021400 19012G22KT P6SM BKN130 OVC250
     FM021800 21012G22KT P6SM SCT050 BKN100 OVC250
     FM022200 19008KT P6SM BKN050 OVC100 PROB30 0222/0301 P6SM -RA=

USA.gov is the U.S. government's official web portal to all federal, state and local government web resources and services.